Terminal Aerodrome Forecast
Issued by NWS Missoula, MT

Home | Current Version | Previous Version | Text Only | Print | Product List | Glossary On
Versions: 1 2 3 4 5 6 7 8 9 10 11 12 13 14 15
000
FTUS45 KMSO 041437 AAA
TAFMSO
TAF AMD
KMSO 041437Z 0415/0512 VRB06KT P6SM VCFG SCT003 OVC080
     FM041800 34009KT P6SM VCSH OVC050
     FM042200 04011KT P6SM VCSH OVC050=

USA.gov is the U.S. government's official web portal to all federal, state and local government web resources and services.